createdAt,value
2019-02-26T00:00:33.937Z,1009.64
2019-02-26T00:01:33.923Z,1009.64
2019-02-26T00:02:33.921Z,1009.62
2019-02-26T00:03:35.380Z,1009.65
2019-02-26T00:04:34.897Z,1009.61
2019-02-26T00:05:33.883Z,1009.59
2019-02-26T00:06:33.880Z,1009.58
2019-02-26T00:07:33.865Z,1009.58
2019-02-26T00:08:33.859Z,1009.51
2019-02-26T00:09:35.228Z,1009.55
2019-02-26T00:10:35.964Z,1009.57
2019-02-26T00:11:35.676Z,1009.54
2019-02-26T00:12:35.530Z,1009.55
2019-02-26T00:13:34.518Z,1009.58
2019-02-26T00:14:33.817Z,1009.61
2019-02-26T00:15:35.728Z,1009.61
2019-02-26T00:16:35.982Z,1009.66
2019-02-26T00:17:36.824Z,1009.66
2019-02-26T00:18:33.769Z,1009.7
2019-02-26T00:19:33.762Z,1009.71
2019-02-26T00:20:36.387Z,1009.73
2019-02-26T00:21:33.773Z,1009.74
2019-02-26T00:22:34.373Z,1009.69
2019-02-26T00:23:33.723Z,1009.77
2019-02-26T00:24:35.204Z,1009.78
2019-02-26T00:25:33.708Z,1009.76
2019-02-26T00:26:34.449Z,1009.75
2019-02-26T00:27:35.114Z,1009.72
2019-02-26T00:28:34.156Z,1009.68
2019-02-26T00:29:33.672Z,1009.62
2019-02-26T00:30:35.578Z,1009.63
2019-02-26T00:31:33.655Z,1009.6
2019-02-26T00:32:33.920Z,1009.62
2019-02-26T00:33:33.637Z,1009.64
2019-02-26T00:34:34.571Z,1009.66
2019-02-26T00:35:33.625Z,1009.67
2019-02-26T00:36:35.528Z,1009.63
2019-02-26T00:37:33.601Z,1009.64
2019-02-26T00:38:35.373Z,1009.63
2019-02-26T00:39:33.585Z,1009.61
2019-02-26T00:40:34.751Z,1009.62
2019-02-26T00:41:35.306Z,1009.64
2019-02-26T00:42:34.190Z,1009.6
2019-02-26T00:43:34.587Z,1009.59
2019-02-26T00:44:35.183Z,1009.57
2019-02-26T00:45:34.016Z,1009.57
2019-02-26T00:46:34.739Z,1009.56
2019-02-26T00:47:34.371Z,1009.57
2019-02-26T00:48:34.163Z,1009.57
2019-02-26T00:49:33.497Z,1009.56
2019-02-26T00:50:35.465Z,1009.58
2019-02-26T00:51:33.479Z,1009.58
2019-02-26T00:52:34.737Z,1009.62
2019-02-26T00:53:33.469Z,1009.66
2019-02-26T00:54:34.364Z,1009.62
2019-02-26T00:55:34.709Z,1009.64
2019-02-26T00:56:33.987Z,1009.65
2019-02-26T00:57:33.984Z,1009.61
2019-02-26T00:58:35.238Z,1009.63
2019-02-26T00:59:36.233Z,1009.61
2019-02-26T01:00:35.316Z,1009.61
2019-02-26T01:01:33.406Z,1009.66
2019-02-26T01:02:33.383Z,1009.62
2019-02-26T01:03:33.370Z,1009.62
2019-02-26T01:04:33.359Z,1009.6
2019-02-26T01:05:34.024Z,1009.58
2019-02-26T01:06:33.556Z,1009.54
2019-02-26T01:07:33.333Z,1009.53
2019-02-26T01:08:33.333Z,1009.54
2019-02-26T01:09:33.988Z,1009.51
2019-02-26T01:10:34.553Z,1009.56
2019-02-26T01:11:33.302Z,1009.53
2019-02-26T01:12:35.239Z,1009.53
2019-02-26T01:13:33.279Z,1009.54
2019-02-26T01:14:33.273Z,1009.5
2019-02-26T01:15:33.262Z,1009.54
2019-02-26T01:16:33.253Z,1009.56
2019-02-26T01:17:33.348Z,1009.54
2019-02-26T01:18:33.237Z,1009.5
2019-02-26T01:19:34.096Z,1009.54
2019-02-26T01:20:33.218Z,1009.5
2019-02-26T01:21:34.138Z,1009.45
2019-02-26T01:22:35.252Z,1009.47
2019-02-26T01:23:33.192Z,1009.48
2019-02-26T01:24:33.182Z,1009.45
2019-02-26T01:25:33.183Z,1009.42
2019-02-26T01:26:33.163Z,1009.44
2019-02-26T01:27:33.155Z,1009.44
2019-02-26T01:28:33.144Z,1009.41
2019-02-26T01:29:33.137Z,1009.36
2019-02-26T01:30:34.146Z,1009.28
2019-02-26T01:31:33.943Z,1009.31
2019-02-26T01:32:33.114Z,1009.22
2019-02-26T01:33:34.261Z,1009.25
2019-02-26T01:34:33.101Z,1009.24
2019-02-26T01:35:35.371Z,1009.22
2019-02-26T01:36:33.075Z,1009.2
2019-02-26T01:37:34.734Z,1009.21
2019-02-26T01:38:33.061Z,1009.19
2019-02-26T01:39:33.045Z,1009.15
2019-02-26T01:40:33.036Z,1009.14
2019-02-26T01:41:33.024Z,1009.13
2019-02-26T01:42:33.020Z,1009.09
2019-02-26T01:43:33.012Z,1009.09
2019-02-26T01:44:35.425Z,1009.09
2019-02-26T01:45:32.992Z,1009.14
2019-02-26T01:46:34.478Z,1009.12
2019-02-26T01:47:32.972Z,1009.09
2019-02-26T01:48:34.416Z,1009.12
2019-02-26T01:49:32.952Z,1009.11
2019-02-26T01:50:33.765Z,1009.11
2019-02-26T01:51:32.931Z,1009.15
2019-02-26T01:52:32.925Z,1009.19
2019-02-26T01:53:32.916Z,1009.16
2019-02-26T01:54:33.539Z,1009.12
2019-02-26T01:55:32.897Z,1009.11
2019-02-26T01:56:33.991Z,1009.09
2019-02-26T01:57:32.876Z,1009.08
2019-02-26T01:58:33.566Z,1009.09
2019-02-26T01:59:34.495Z,1009.02
2019-02-26T02:00:32.857Z,1009.03
2019-02-26T02:01:32.838Z,1009.02
2019-02-26T02:02:32.831Z,1009.01
2019-02-26T02:03:32.828Z,1009.03
2019-02-26T02:04:34.190Z,1009.01
2019-02-26T02:05:32.806Z,1009.03
2019-02-26T02:06:34.815Z,1009.03
2019-02-26T02:07:32.783Z,1009.04
2019-02-26T02:08:32.773Z,1009.07
2019-02-26T02:09:32.768Z,1009.04
2019-02-26T02:10:32.755Z,1009.03
2019-02-26T02:11:33.396Z,1008.97
2019-02-26T02:12:34.374Z,1008.97
2019-02-26T02:13:33.621Z,1008.97
2019-02-26T02:14:32.718Z,1008.91
2019-02-26T02:15:32.708Z,1008.91
2019-02-26T02:16:33.571Z,1008.92
2019-02-26T02:17:33.366Z,1008.88
2019-02-26T02:18:32.681Z,1008.91
2019-02-26T02:19:32.730Z,1008.87
2019-02-26T02:20:32.669Z,1008.88
2019-02-26T02:21:33.721Z,1008.87
2019-02-26T02:22:33.004Z,1008.87
2019-02-26T02:23:32.648Z,1008.85
2019-02-26T02:24:32.629Z,1008.86
2019-02-26T02:25:33.730Z,1008.83
2019-02-26T02:26:32.610Z,1008.79
2019-02-26T02:27:33.177Z,1008.8
2019-02-26T02:28:33.642Z,1008.81
2019-02-26T02:29:32.579Z,1008.79
2019-02-26T02:30:35.390Z,1008.76
2019-02-26T02:31:34.724Z,1008.8
2019-02-26T02:32:34.455Z,1008.8
2019-02-26T02:33:34.903Z,1008.79
2019-02-26T02:34:33.617Z,1008.8
2019-02-26T02:35:32.522Z,1008.83
2019-02-26T02:36:32.512Z,1008.88
2019-02-26T02:37:32.505Z,1008.92
2019-02-26T02:38:36.446Z,1008.91
2019-02-26T02:39:32.483Z,1008.91
2019-02-26T02:40:32.474Z,1008.91
2019-02-26T02:41:32.474Z,1008.91
2019-02-26T02:42:34.894Z,1008.9
2019-02-26T02:43:32.449Z,1008.88
2019-02-26T02:44:32.440Z,1008.83
2019-02-26T02:45:32.431Z,1008.8
2019-02-26T02:46:33.795Z,1008.77
2019-02-26T02:47:34.230Z,1008.77
2019-02-26T02:48:32.403Z,1008.79
2019-02-26T02:49:33.606Z,1008.78
2019-02-26T02:50:32.400Z,1008.8
2019-02-26T02:51:34.530Z,1008.77
2019-02-26T02:52:35.103Z,1008.81
2019-02-26T02:53:32.485Z,1008.77
2019-02-26T02:54:32.342Z,1008.8
2019-02-26T02:55:32.338Z,1008.75
2019-02-26T02:56:33.368Z,1008.77
2019-02-26T02:57:34.374Z,1008.8
2019-02-26T02:58:32.304Z,1008.79
2019-02-26T02:59:33.869Z,1008.75
2019-02-26T03:00:34.397Z,1008.85
2019-02-26T03:01:32.275Z,1008.78
2019-02-26T03:02:37.428Z,1008.84
2019-02-26T03:03:32.258Z,1008.79
2019-02-26T03:04:34.653Z,1008.79
2019-02-26T03:05:35.015Z,1008.85
2019-02-26T03:06:32.475Z,1008.8
2019-02-26T03:07:32.218Z,1008.79
2019-02-26T03:08:32.210Z,1008.82
2019-02-26T03:09:35.305Z,1008.8
2019-02-26T03:10:34.544Z,1008.82
2019-02-26T03:11:35.864Z,1008.79
2019-02-26T03:12:32.174Z,1008.81
2019-02-26T03:13:32.163Z,1008.79
2019-02-26T03:14:33.703Z,1008.8
2019-02-26T03:15:33.572Z,1008.83
2019-02-26T03:16:32.134Z,1008.81
2019-02-26T03:17:32.131Z,1008.79
2019-02-26T03:18:32.119Z,1008.79
2019-02-26T03:19:33.349Z,1008.8
2019-02-26T03:20:36.980Z,1008.78
2019-02-26T03:21:32.089Z,1008.84
2019-02-26T03:22:33.233Z,1008.81
2019-02-26T03:23:33.873Z,1008.86
2019-02-26T03:24:33.773Z,1008.84
2019-02-26T03:25:32.048Z,1008.87
2019-02-26T03:26:32.037Z,1008.82
2019-02-26T03:27:34.113Z,1008.82
2019-02-26T03:28:34.792Z,1008.8
2019-02-26T03:29:32.006Z,1008.75
2019-02-26T03:30:38.099Z,1008.76
2019-02-26T03:31:34.739Z,1008.72
2019-02-26T03:32:31.998Z,1008.74
2019-02-26T03:33:31.968Z,1008.68
2019-02-26T03:34:32.187Z,1008.71
2019-02-26T03:35:31.945Z,1008.67
2019-02-26T03:36:34.110Z,1008.72
2019-02-26T03:37:34.097Z,1008.78
2019-02-26T03:38:31.914Z,1008.77
2019-02-26T03:39:31.907Z,1008.82
2019-02-26T03:40:32.931Z,1008.81
2019-02-26T03:41:31.901Z,1008.83
2019-02-26T03:42:33.348Z,1008.76
2019-02-26T03:43:33.916Z,1008.73
2019-02-26T03:44:31.860Z,1008.73
2019-02-26T03:45:31.849Z,1008.74
2019-02-26T03:46:31.836Z,1008.71
2019-02-26T03:47:31.825Z,1008.7
2019-02-26T03:48:31.818Z,1008.7
2019-02-26T03:49:31.806Z,1008.69
2019-02-26T03:50:31.906Z,1008.73
2019-02-26T03:51:31.793Z,1008.73
2019-02-26T03:52:32.262Z,1008.74
2019-02-26T03:53:34.186Z,1008.72
2019-02-26T03:54:31.762Z,1008.71
2019-02-26T03:55:33.644Z,1008.69
2019-02-26T03:56:31.735Z,1008.66
2019-02-26T03:57:31.728Z,1008.65
2019-02-26T03:58:31.721Z,1008.67
2019-02-26T03:59:31.703Z,1008.64
2019-02-26T04:00:34.109Z,1008.54
2019-02-26T04:01:31.686Z,1008.51
2019-02-26T04:02:31.674Z,1008.51
2019-02-26T04:03:32.445Z,1008.52
2019-02-26T04:04:33.619Z,1008.53
2019-02-26T04:05:31.654Z,1008.47
2019-02-26T04:06:33.229Z,1008.48
2019-02-26T04:07:33.320Z,1008.49
2019-02-26T04:08:31.616Z,1008.46
2019-02-26T04:09:31.605Z,1008.47
2019-02-26T04:10:31.609Z,1008.44
2019-02-26T04:11:31.607Z,1008.49
2019-02-26T04:12:35.783Z,1008.46
2019-02-26T04:13:31.566Z,1008.45
2019-02-26T04:14:31.556Z,1008.46
2019-02-26T04:15:33.347Z,1008.45
2019-02-26T04:16:32.345Z,1008.44
2019-02-26T04:17:33.555Z,1008.44
2019-02-26T04:18:34.111Z,1008.41
2019-02-26T04:19:31.510Z,1008.45
2019-02-26T04:20:31.493Z,1008.46
2019-02-26T04:21:31.493Z,1008.42
2019-02-26T04:22:31.478Z,1008.42
2019-02-26T04:23:33.159Z,1008.5
2019-02-26T04:24:33.072Z,1008.47
2019-02-26T04:25:33.859Z,1008.48
2019-02-26T04:26:34.468Z,1008.49
2019-02-26T04:27:33.481Z,1008.48
2019-02-26T04:28:33.437Z,1008.44
2019-02-26T04:29:35.228Z,1008.45
2019-02-26T04:30:34.720Z,1008.42
2019-02-26T04:31:31.382Z,1008.4
2019-02-26T04:32:31.372Z,1008.42
2019-02-26T04:33:32.815Z,1008.36
2019-02-26T04:34:31.355Z,1008.36
2019-02-26T04:35:31.348Z,1008.35
2019-02-26T04:36:31.339Z,1008.37
2019-02-26T04:37:33.346Z,1008.34
2019-02-26T04:38:31.354Z,1008.35
2019-02-26T04:39:31.303Z,1008.29
2019-02-26T04:40:32.917Z,1008.32
2019-02-26T04:41:32.563Z,1008.28
2019-02-26T04:42:32.620Z,1008.28
2019-02-26T04:43:33.607Z,1008.29
2019-02-26T04:44:33.884Z,1008.28
2019-02-26T04:45:31.240Z,1008.24
2019-02-26T04:46:33.599Z,1008.23
2019-02-26T04:47:33.685Z,1008.28
2019-02-26T04:48:32.309Z,1008.26
2019-02-26T04:49:33.872Z,1008.28
2019-02-26T04:50:32.860Z,1008.3
2019-02-26T04:51:31.178Z,1008.27
2019-02-26T04:52:32.132Z,1008.31
2019-02-26T04:53:31.705Z,1008.33
2019-02-26T04:54:33.177Z,1008.31
2019-02-26T04:55:32.845Z,1008.34
2019-02-26T04:56:33.550Z,1008.33
2019-02-26T04:57:31.116Z,1008.36
2019-02-26T04:58:31.116Z,1008.31
2019-02-26T04:59:32.339Z,1008.38
2019-02-26T05:00:33.594Z,1008.34
2019-02-26T05:01:31.073Z,1008.34
2019-02-26T05:02:31.075Z,1008.28
2019-02-26T05:03:31.055Z,1008.24
2019-02-26T05:04:33.784Z,1008.22
2019-02-26T05:05:33.684Z,1008.22
2019-02-26T05:06:31.038Z,1008.27
2019-02-26T05:07:32.809Z,1008.23
2019-02-26T05:08:32.033Z,1008.22
2019-02-26T05:09:33.158Z,1008.21
2019-02-26T05:10:32.237Z,1008.16
2019-02-26T05:11:34.082Z,1008.18
2019-02-26T05:12:33.960Z,1008.13
2019-02-26T05:13:32.561Z,1008.13
2019-02-26T05:14:30.967Z,1008.09
2019-02-26T05:15:33.126Z,1008.07
2019-02-26T05:16:32.553Z,1008.03
2019-02-26T05:17:33.198Z,1008.03
2019-02-26T05:18:31.975Z,1008.02
2019-02-26T05:19:30.894Z,1008.05
2019-02-26T05:20:31.346Z,1008.03
2019-02-26T05:21:33.157Z,1008.01
2019-02-26T05:22:33.093Z,1008.04
2019-02-26T05:23:33.038Z,1008.02
2019-02-26T05:24:30.839Z,1008.02
2019-02-26T05:25:31.361Z,1008.03
2019-02-26T05:26:30.817Z,1008.03
2019-02-26T05:27:30.807Z,1008.07
2019-02-26T05:28:33.377Z,1008.08
2019-02-26T05:29:30.792Z,1008.07
2019-02-26T05:30:30.783Z,1008.08
2019-02-26T05:31:33.018Z,1008.1
2019-02-26T05:32:32.726Z,1008.1
2019-02-26T05:33:32.741Z,1008.09
2019-02-26T05:34:30.735Z,1008.08
2019-02-26T05:35:30.728Z,1008.08
2019-02-26T05:36:31.664Z,1008.08
2019-02-26T05:37:32.321Z,1008.05
2019-02-26T05:38:32.915Z,1008.1
2019-02-26T05:39:30.685Z,1008.11
2019-02-26T05:40:30.672Z,1008.09
2019-02-26T05:41:30.661Z,1008.15
2019-02-26T05:42:30.653Z,1008.1
2019-02-26T05:43:33.727Z,1008.13
2019-02-26T05:44:30.634Z,1008.03
2019-02-26T05:45:32.956Z,1008.03
2019-02-26T05:46:30.611Z,1008.05
2019-02-26T05:47:30.601Z,1007.99
2019-02-26T05:48:30.595Z,1008.01
2019-02-26T05:49:32.127Z,1008.06
2019-02-26T05:50:32.778Z,1008.03
2019-02-26T05:51:32.631Z,1007.99
2019-02-26T05:52:32.879Z,1008.02
2019-02-26T05:53:30.539Z,1008.02
2019-02-26T05:54:30.528Z,1008.01
2019-02-26T05:55:30.518Z,1008.02
2019-02-26T05:56:30.507Z,1008.09
2019-02-26T05:57:32.461Z,1008.14
2019-02-26T05:58:30.491Z,1008.14
2019-02-26T05:59:30.475Z,1008.18
2019-02-26T06:00:33.042Z,1008.21
2019-02-26T06:01:30.456Z,1008.25
2019-02-26T06:02:30.483Z,1008.22
2019-02-26T06:03:30.446Z,1008.25
2019-02-26T06:04:31.907Z,1008.24
2019-02-26T06:05:30.416Z,1008.28
2019-02-26T06:06:30.452Z,1008.27
2019-02-26T06:07:33.529Z,1008.32
2019-02-26T06:08:33.594Z,1008.38
2019-02-26T06:09:33.367Z,1008.33
2019-02-26T06:10:32.499Z,1008.3
2019-02-26T06:11:33.007Z,1008.38
2019-02-26T06:12:32.598Z,1008.32
2019-02-26T06:13:31.500Z,1008.39
2019-02-26T06:14:33.093Z,1008.38
2019-02-26T06:15:31.446Z,1008.43
2019-02-26T06:16:31.447Z,1008.39
2019-02-26T06:17:30.291Z,1008.44
2019-02-26T06:18:30.286Z,1008.52
2019-02-26T06:19:32.629Z,1008.51
2019-02-26T06:20:31.908Z,1008.55
2019-02-26T06:21:30.254Z,1008.58
2019-02-26T06:22:31.772Z,1008.56
2019-02-26T06:23:31.638Z,1008.59
2019-02-26T06:24:32.962Z,1008.48
2019-02-26T06:25:30.219Z,1008.48
2019-02-26T06:26:32.536Z,1008.47
2019-02-26T06:27:30.200Z,1008.46
2019-02-26T06:28:30.182Z,1008.48
2019-02-26T06:29:32.419Z,1008.5
2019-02-26T06:30:30.163Z,1008.51
2019-02-26T06:31:30.151Z,1008.47
2019-02-26T06:32:32.248Z,1008.43
2019-02-26T06:33:32.418Z,1008.44
2019-02-26T06:34:30.121Z,1008.45
2019-02-26T06:35:31.459Z,1008.4
2019-02-26T06:36:30.509Z,1008.38
2019-02-26T06:37:31.266Z,1008.38
2019-02-26T06:38:30.719Z,1008.34
2019-02-26T06:39:32.058Z,1008.35
2019-02-26T06:40:32.371Z,1008.41
2019-02-26T06:41:30.049Z,1008.37
2019-02-26T06:42:31.331Z,1008.42
2019-02-26T06:43:30.920Z,1008.43
2019-02-26T06:44:30.024Z,1008.43
2019-02-26T06:45:30.021Z,1008.46
2019-02-26T06:46:31.817Z,1008.43
2019-02-26T06:47:31.024Z,1008.42
2019-02-26T06:48:32.138Z,1008.47
2019-02-26T06:49:29.970Z,1008.47
2019-02-26T06:50:31.657Z,1008.55
2019-02-26T06:51:30.727Z,1008.56
2019-02-26T06:52:33.282Z,1008.55
2019-02-26T06:53:29.934Z,1008.58
2019-02-26T06:54:31.742Z,1008.57
2019-02-26T06:55:29.915Z,1008.6
2019-02-26T06:56:30.166Z,1008.62
2019-02-26T06:57:29.894Z,1008.66
2019-02-26T06:58:29.882Z,1008.68
2019-02-26T06:59:31.730Z,1008.69
2019-02-26T07:00:29.866Z,1008.75
2019-02-26T07:01:30.857Z,1008.72
2019-02-26T07:02:29.846Z,1008.75
2019-02-26T07:03:29.842Z,1008.77
2019-02-26T07:04:30.249Z,1008.76
2019-02-26T07:05:29.817Z,1008.76
2019-02-26T07:06:30.947Z,1008.79
2019-02-26T07:07:29.797Z,1008.78
2019-02-26T07:08:30.942Z,1008.86
2019-02-26T07:09:29.776Z,1008.88
2019-02-26T07:10:31.259Z,1008.92
2019-02-26T07:11:31.216Z,1008.88
2019-02-26T07:12:29.747Z,1008.87
2019-02-26T07:13:29.746Z,1008.86
2019-02-26T07:14:31.699Z,1008.9
2019-02-26T07:15:29.720Z,1008.96
2019-02-26T07:16:29.709Z,1008.97
2019-02-26T07:17:33.665Z,1008.94
2019-02-26T07:18:29.698Z,1009.01
2019-02-26T07:19:31.185Z,1008.96
2019-02-26T07:20:33.972Z,1009.06
2019-02-26T07:21:29.667Z,1009.04
2019-02-26T07:22:29.657Z,1009.04
2019-02-26T07:23:30.618Z,1009.07
2019-02-26T07:24:29.637Z,1009.06
2019-02-26T07:25:31.346Z,1009.03
2019-02-26T07:26:29.624Z,1009.05
2019-02-26T07:27:31.295Z,1009.05
2019-02-26T07:28:29.602Z,1009.03
2019-02-26T07:29:31.283Z,1009.01
2019-02-26T07:30:29.581Z,1009
2019-02-26T07:31:30.997Z,1008.99
2019-02-26T07:32:29.585Z,1009.02
2019-02-26T07:33:30.573Z,1009.01
2019-02-26T07:34:29.547Z,1008.99
2019-02-26T07:35:30.580Z,1008.97
2019-02-26T07:36:29.533Z,1008.98
2019-02-26T07:37:31.370Z,1009
2019-02-26T07:38:29.515Z,1009.01
2019-02-26T07:39:29.509Z,1009.07
2019-02-26T07:40:33.011Z,1009
2019-02-26T07:41:30.281Z,1009.01
2019-02-26T07:42:32.671Z,1009
2019-02-26T07:43:29.546Z,1008.95
2019-02-26T07:44:29.477Z,1008.93
2019-02-26T07:45:30.294Z,1008.96
2019-02-26T07:46:29.467Z,1008.95
2019-02-26T07:47:31.230Z,1008.95
2019-02-26T07:48:31.231Z,1008.95
2019-02-26T07:49:29.459Z,1008.96
2019-02-26T07:50:32.465Z,1008.94
2019-02-26T07:51:31.129Z,1008.95
2019-02-26T07:52:31.090Z,1008.94
2019-02-26T07:53:29.438Z,1008.95
2019-02-26T07:54:29.433Z,1008.96
2019-02-26T07:55:30.700Z,1008.94
2019-02-26T07:56:30.609Z,1008.91
2019-02-26T07:57:29.423Z,1008.94
2019-02-26T07:58:31.348Z,1008.95
2019-02-26T07:59:32.320Z,1008.95
2019-02-26T08:00:30.497Z,1008.96
2019-02-26T08:01:29.414Z,1008.97
2019-02-26T08:02:30.566Z,1008.9
2019-02-26T08:03:29.507Z,1008.95
2019-02-26T08:04:29.412Z,1008.95
2019-02-26T08:05:29.412Z,1008.89
2019-02-26T08:06:31.446Z,1008.88
2019-02-26T08:07:30.788Z,1008.92
2019-02-26T08:08:29.400Z,1008.91
2019-02-26T08:09:29.401Z,1008.9
2019-02-26T08:10:29.402Z,1008.88
2019-02-26T08:11:29.398Z,1008.87
2019-02-26T08:12:30.896Z,1008.83
2019-02-26T08:13:31.550Z,1008.84
2019-02-26T08:14:29.399Z,1008.77
2019-02-26T08:15:30.280Z,1008.8
2019-02-26T08:16:29.958Z,1008.8
2019-02-26T08:17:29.407Z,1008.81
2019-02-26T08:18:29.390Z,1008.81
2019-02-26T08:19:29.939Z,1008.82
2019-02-26T08:20:30.334Z,1008.78
2019-02-26T08:21:29.725Z,1008.79
2019-02-26T08:22:31.395Z,1008.77
2019-02-26T08:23:29.390Z,1008.78
2019-02-26T08:24:29.396Z,1008.77
2019-02-26T08:25:29.388Z,1008.81
2019-02-26T08:26:29.386Z,1008.78
2019-02-26T08:27:30.842Z,1008.78
2019-02-26T08:28:29.385Z,1008.8
2019-02-26T08:29:31.189Z,1008.79
2019-02-26T08:30:29.384Z,1008.81
2019-02-26T08:31:29.385Z,1008.84
2019-02-26T08:32:30.522Z,1008.81
2019-02-26T08:33:29.386Z,1008.86
2019-02-26T08:34:29.384Z,1008.82
2019-02-26T08:35:29.381Z,1008.83
2019-02-26T08:36:29.380Z,1008.78
2019-02-26T08:37:29.382Z,1008.75
2019-02-26T08:38:30.215Z,1008.76
2019-02-26T08:39:29.385Z,1008.76
2019-02-26T08:40:29.386Z,1008.74
2019-02-26T08:41:29.373Z,1008.7
2019-02-26T08:42:29.366Z,1008.68
2019-02-26T08:43:29.366Z,1008.69
2019-02-26T08:44:29.357Z,1008.67
2019-02-26T08:45:30.984Z,1008.71
2019-02-26T08:46:29.404Z,1008.72
2019-02-26T08:47:29.351Z,1008.7
2019-02-26T08:48:29.342Z,1008.71
2019-02-26T08:49:29.343Z,1008.72
2019-02-26T08:50:32.811Z,1008.73
2019-02-26T08:51:30.133Z,1008.72
2019-02-26T08:52:29.501Z,1008.74
2019-02-26T08:53:31.435Z,1008.72
2019-02-26T08:54:31.160Z,1008.74
2019-02-26T08:55:29.320Z,1008.77
2019-02-26T08:56:31.479Z,1008.74
2019-02-26T08:57:29.306Z,1008.7
2019-02-26T08:58:29.301Z,1008.67
2019-02-26T08:59:29.298Z,1008.64
2019-02-26T09:00:29.295Z,1008.65
2019-02-26T09:01:29.295Z,1008.55
2019-02-26T09:02:29.283Z,1008.59
2019-02-26T09:03:29.276Z,1008.6
2019-02-26T09:04:29.273Z,1008.57
2019-02-26T09:05:31.626Z,1008.56
2019-02-26T09:06:29.265Z,1008.53
2019-02-26T09:07:29.252Z,1008.58
2019-02-26T09:08:30.589Z,1008.56
2019-02-26T09:09:30.129Z,1008.57
2019-02-26T09:10:29.235Z,1008.59
2019-02-26T09:11:31.194Z,1008.57
2019-02-26T09:12:29.684Z,1008.56
2019-02-26T09:13:30.766Z,1008.58
2019-02-26T09:14:32.003Z,1008.58
2019-02-26T09:15:31.228Z,1008.58
2019-02-26T09:16:30.326Z,1008.6
2019-02-26T09:17:30.345Z,1008.61
2019-02-26T09:18:31.123Z,1008.63
2019-02-26T09:19:30.225Z,1008.55
2019-02-26T09:20:29.187Z,1008.57
2019-02-26T09:21:29.269Z,1008.51
2019-02-26T09:22:29.169Z,1008.55
2019-02-26T09:23:30.518Z,1008.57
2019-02-26T09:24:29.169Z,1008.55
2019-02-26T09:25:31.325Z,1008.53
2019-02-26T09:26:29.145Z,1008.58
2019-02-26T09:27:30.050Z,1008.55
2019-02-26T09:28:30.026Z,1008.58
2019-02-26T09:29:29.128Z,1008.54
2019-02-26T09:30:31.502Z,1008.58
2019-02-26T09:31:29.119Z,1008.58
2019-02-26T09:32:29.110Z,1008.54
2019-02-26T09:33:32.555Z,1008.5
2019-02-26T09:34:31.549Z,1008.5
2019-02-26T09:35:31.115Z,1008.53
2019-02-26T09:36:29.371Z,1008.52
2019-02-26T09:37:29.084Z,1008.5
2019-02-26T09:38:29.077Z,1008.51
2019-02-26T09:39:29.407Z,1008.45
2019-02-26T09:40:32.583Z,1008.45
2019-02-26T09:41:29.063Z,1008.49
2019-02-26T09:42:30.113Z,1008.44
2019-02-26T09:43:29.058Z,1008.4
2019-02-26T09:44:30.945Z,1008.39
2019-02-26T09:45:30.051Z,1008.4
2019-02-26T09:46:31.180Z,1008.39
2019-02-26T09:47:31.384Z,1008.43
2019-02-26T09:48:29.029Z,1008.38
2019-02-26T09:49:30.950Z,1008.35
2019-02-26T09:50:29.019Z,1008.35
2019-02-26T09:51:30.593Z,1008.36
2019-02-26T09:52:30.239Z,1008.32
2019-02-26T09:53:29.003Z,1008.33
2019-02-26T09:54:29.004Z,1008.36
2019-02-26T09:55:28.997Z,1008.39
2019-02-26T09:56:28.997Z,1008.37
2019-02-26T09:57:29.022Z,1008.4
2019-02-26T09:58:28.990Z,1008.4
2019-02-26T09:59:31.230Z,1008.44
2019-02-26T10:00:29.564Z,1008.48
2019-02-26T10:01:30.560Z,1008.49
2019-02-26T10:02:28.985Z,1008.53
2019-02-26T10:03:29.625Z,1008.49
2019-02-26T10:04:29.009Z,1008.45
2019-02-26T10:05:28.952Z,1008.48
2019-02-26T10:06:28.947Z,1008.47
2019-02-26T10:07:30.757Z,1008.49
2019-02-26T10:08:30.430Z,1008.46
2019-02-26T10:09:28.938Z,1008.47
2019-02-26T10:10:31.006Z,1008.44
2019-02-26T10:11:28.932Z,1008.38
2019-02-26T10:12:29.807Z,1008.39
2019-02-26T10:13:28.933Z,1008.37
2019-02-26T10:14:30.920Z,1008.39
2019-02-26T10:15:28.919Z,1008.33
2019-02-26T10:16:31.124Z,1008.29
2019-02-26T10:17:28.916Z,1008.25
2019-02-26T10:18:30.853Z,1008.24
2019-02-26T10:19:30.865Z,1008.22
2019-02-26T10:20:31.601Z,1008.19
2019-02-26T10:21:28.894Z,1008.19
2019-02-26T10:22:33.134Z,1008.22
2019-02-26T10:23:32.705Z,1008.2
2019-02-26T10:24:30.105Z,1008.2
2019-02-26T10:25:31.857Z,1008.18
2019-02-26T10:26:30.732Z,1008.21
2019-02-26T10:27:31.797Z,1008.21
2019-02-26T10:28:30.100Z,1008.23
2019-02-26T10:29:28.874Z,1008.22
2019-02-26T10:30:31.167Z,1008.21
2019-02-26T10:31:28.862Z,1008.2
2019-02-26T10:32:28.862Z,1008.22
2019-02-26T10:33:28.857Z,1008.21
2019-02-26T10:34:30.330Z,1008.23
2019-02-26T10:35:33.072Z,1008.25
2019-02-26T10:36:30.917Z,1008.28
2019-02-26T10:37:31.162Z,1008.24
2019-02-26T10:38:31.283Z,1008.22
2019-02-26T10:39:28.839Z,1008.23
2019-02-26T10:40:34.988Z,1008.23
2019-02-26T10:41:28.836Z,1008.25
2019-02-26T10:42:28.831Z,1008.23
2019-02-26T10:43:28.838Z,1008.26
2019-02-26T10:44:28.829Z,1008.22
2019-02-26T10:45:28.828Z,1008.22
2019-02-26T10:46:29.353Z,1008.25
2019-02-26T10:47:29.764Z,1008.22
2019-02-26T10:48:28.814Z,1008.12
2019-02-26T10:49:28.879Z,1008.13
2019-02-26T10:50:31.466Z,1008.09
2019-02-26T10:51:28.817Z,1008.12
2019-02-26T10:52:28.833Z,1008.15
2019-02-26T10:53:28.804Z,1008.06
2019-02-26T10:54:31.337Z,1008.06
2019-02-26T10:55:33.804Z,1008
2019-02-26T10:56:30.677Z,1008.02
2019-02-26T10:57:30.656Z,1008.04
2019-02-26T10:58:28.791Z,1008.05
2019-02-26T10:59:28.787Z,1008
2019-02-26T11:00:31.882Z,1008.03
2019-02-26T11:01:30.814Z,1008.03
2019-02-26T11:02:28.781Z,1008.01
2019-02-26T11:03:29.951Z,1008.02
2019-02-26T11:04:34.614Z,1007.92
2019-02-26T11:05:28.780Z,1007.93
2019-02-26T11:06:30.473Z,1007.84
2019-02-26T11:07:31.700Z,1007.85
2019-02-26T11:08:29.522Z,1007.85
2019-02-26T11:09:31.424Z,1007.84
2019-02-26T11:10:28.790Z,1007.84
2019-02-26T11:11:30.503Z,1007.81
2019-02-26T11:12:31.535Z,1007.81
2019-02-26T11:13:28.763Z,1007.81
2019-02-26T11:14:30.807Z,1007.8
2019-02-26T11:15:30.916Z,1007.77
2019-02-26T11:16:30.453Z,1007.82
2019-02-26T11:17:29.462Z,1007.81
2019-02-26T11:18:28.752Z,1007.81
2019-02-26T11:19:33.180Z,1007.82
2019-02-26T11:20:30.802Z,1007.81
2019-02-26T11:21:28.750Z,1007.8
2019-02-26T11:22:28.743Z,1007.82
2019-02-26T11:23:31.059Z,1007.76
2019-02-26T11:24:30.745Z,1007.74
2019-02-26T11:25:28.739Z,1007.77
2019-02-26T11:26:30.069Z,1007.75
2019-02-26T11:27:28.734Z,1007.76
2019-02-26T11:28:32.601Z,1007.76
2019-02-26T11:29:30.417Z,1007.66
2019-02-26T11:30:31.607Z,1007.65
2019-02-26T11:31:28.733Z,1007.69
2019-02-26T11:32:30.084Z,1007.65
2019-02-26T11:33:28.756Z,1007.64
2019-02-26T11:34:31.332Z,1007.67
2019-02-26T11:35:28.723Z,1007.62
2019-02-26T11:36:31.065Z,1007.66
2019-02-26T11:37:29.478Z,1007.66
2019-02-26T11:38:28.722Z,1007.68
2019-02-26T11:39:28.721Z,1007.67
2019-02-26T11:40:30.562Z,1007.61
2019-02-26T11:41:29.277Z,1007.66
2019-02-26T11:42:28.823Z,1007.61
2019-02-26T11:43:29.024Z,1007.67
2019-02-26T11:44:28.715Z,1007.62
2019-02-26T11:45:28.715Z,1007.62
2019-02-26T11:46:29.819Z,1007.57
2019-02-26T11:47:28.710Z,1007.58
2019-02-26T11:48:30.840Z,1007.58
2019-02-26T11:49:28.705Z,1007.58
2019-02-26T11:50:28.718Z,1007.54
2019-02-26T11:51:36.779Z,1007.56
2019-02-26T11:52:28.714Z,1007.52
2019-02-26T11:53:29.787Z,1007.51
2019-02-26T11:54:32.174Z,1007.58
2019-02-26T11:55:31.412Z,1007.58
2019-02-26T11:56:28.701Z,1007.58
2019-02-26T11:57:30.187Z,1007.53
2019-02-26T11:58:28.696Z,1007.54
2019-02-26T11:59:28.742Z,1007.52
2019-02-26T12:00:32.003Z,1007.49
2019-02-26T12:01:29.292Z,1007.51
2019-02-26T12:02:31.866Z,1007.5
2019-02-26T12:03:30.976Z,1007.44
2019-02-26T12:04:28.690Z,1007.44
2019-02-26T12:05:32.921Z,1007.44
2019-02-26T12:06:28.696Z,1007.4
2019-02-26T12:07:29.749Z,1007.47
2019-02-26T12:08:28.687Z,1007.46